ADDS TAF Board (Experimental) INFO

IDs: Format: Expanded Condensed

Updated at: 1856 UTC 21 Nov 2014

KFLL - Ft Lauderdale-Hollyw, FL, US

Issued at 1740 UTC 21 Nov 2014
Time1853Z21/19Z21/20Z21/21Z21/22Z21/23Z22/00Z22/01Z22/02Z22/03Z22/04Z22/05Z22/06Z22/07Z
TypeOBSPRVLPRVLPRVLPRVLPRVLPRVLPRVLPRVLPRVLPRVLPRVLPRVLPRVL
VIS73335555555555
CIG1315151525252525252525252525
CoverOVCOVCOVCOVCOVCOVCOVCOVCOVCOVCOVCOVCOVCOVC
FltCatMVFRMVFRMVFRMVFRMVFRMVFRMVFRMVFRMVFRMVFRMVFRMVFRMVFRMVFR
WX-RA-RA-RA-RA-RA-RA-RA-RA-RA-RA-RA-RA-RA-RA
WDir5060606050505050505050505050
WSpd1212121212121212121212121212
WGst22------19191919191919191919
R10/28
XWnd86668888888888
XGst14------12121212121212121212
HWnd91010109999999999
HGst17------15151515151515151515
Raw TAF
KFLL 211740Z 2118/2218 06012KT 3SM -RA BKN015 OVC025
  FM212200 05012G19KT 5SM -RA OVC025
  FM221100 05013KT 4SM -RA BKN015 OVC025


Raw METAR
KFLL 211853Z 05012G22KT 7SM -RA SCT010 BKN013 OVC019 22/19 A3013 RMK AO2 SLP201 P0001 T02170194
KFLL 211800Z 06011KT 7SM -RA BKN010 BKN016 OVC023 22/20 A3014 RMK AO2 P0000 T02220200
KFLL 211753Z 04012KT 7SM -RA FEW008 BKN016 OVC023 22/20 A3014 RMK AO2 RAE09B19 SLP206 P0003 60024 T02220200 10228 20217 58015

TAF Board Legend

Hazard VFR MVFR IFR LIFR
Visibility (sm) >5 3≤X≤5 1≤X<3 <1
Ceiling (100 ft) >30 10≤X≤30 5≤X<10 <5
Wind Speed (kt) <10 10≤X<20 20≤X<30 ≥30
Wind Gust (kt) <15 15≤X<25 25≤X<35 ≥35
Weather No Wx Reported VCTS,-TS,-FZRA TS,FZRA +TS,+FZRA


Page loaded:  18:56 UTC  |   10:56 AM Pacific  |   11:56 AM Mountain  |   12:56 PM Central  |   01:56 PM Eastern

 

ADVISORIES

FORECASTS

FORECASTS

OBSERVATIONS

USER TOOLS

ABOUT US